Lake Lure, North Carolina
Current Conditions -  °F | °C
As of 8:15 AM on Friday 24 Oct 2014 (Local Time) from KFQD Reporting Station
Clear Clear  
Wind Chill: 42°   Ceiling: Unl
Heat Index: 42°   Visibility: 10mi
Dew Point: 40°   Wind: 3mph
Humidity: 91%   Direction: 300°WNW
Pressure: 30.08"   Gusts: NA
Location:  35.43°N, 82.2°W
Report Text: KFQD 241215Z AUTO 30003KT 10SM CLR 06/04 A3008 RMK AO2 T00560042
Loading
Personal Weather Stations






























Interactive Weather Map
Tropical Storm Tracking
New forecast layout! Learn more

10-Day Weather Forecast

Advertisements
Track Severe Weather on mobile